sensor_id;sensor_type;location;lat;lon;timestamp;pressure;altitude;pressure_sealevel;temperature;humidity
49779;BME280;36217;60.232;24.776;2023-01-31T00:02:03;97791.37;;;-0.78;100.00
49779;BME280;36217;60.232;24.776;2023-01-31T00:04:30;97787.14;;;-0.68;100.00
49779;BME280;36217;60.232;24.776;2023-01-31T00:06:57;97793.59;;;-0.73;100.00
49779;BME280;36217;60.232;24.776;2023-01-31T00:09:24;97809.18;;;0.03;100.00
49779;BME280;36217;60.232;24.776;2023-01-31T00:11:51;97809.92;;;-0.09;100.00
49779;BME280;36217;60.232;24.776;2023-01-31T00:14:19;97814.23;;;-0.71;100.00
49779;BME280;36217;60.232;24.776;2023-01-31T00:16:47;97826.42;;;-0.14;100.00
49779;BME280;36217;60.232;24.776;2023-01-31T00:19:14;97826.96;;;-0.53;100.00
49779;BME280;36217;60.232;24.776;2023-01-31T00:21:41;97836.87;;;-0.40;100.00
49779;BME280;36217;60.232;24.776;2023-01-31T00:24:11;97849.34;;;-0.22;100.00
49779;BME280;36217;60.232;24.776;2023-01-31T00:26:39;97842.37;;;-0.49;100.00
49779;BME280;36217;60.232;24.776;2023-01-31T00:29:06;97842.20;;;-0.36;100.00
49779;BME280;36217;60.232;24.776;2023-01-31T00:31:33;97850.44;;;-0.25;100.00
49779;BME280;36217;60.232;24.776;2023-01-31T00:34:01;97843.85;;;-0.67;100.00
49779;BME280;36217;60.232;24.776;2023-01-31T00:36:30;97844.57;;;-0.65;100.00
49779;BME280;36217;60.232;24.776;2023-01-31T00:39:00;97851.32;;;-0.32;100.00
49779;BME280;36217;60.232;24.776;2023-01-31T00:41:28;97863.17;;;-0.26;100.00
49779;BME280;36217;60.232;24.776;2023-01-31T00:43:56;97864.36;;;-0.40;100.00
49779;BME280;36217;60.232;24.776;2023-01-31T00:46:24;97854.69;;;-0.56;100.00
49779;BME280;36217;60.232;24.776;2023-01-31T00:48:53;97874.74;;;-0.48;100.00
49779;BME280;36217;60.232;24.776;2023-01-31T00:51:20;97875.04;;;-0.99;100.00
49779;BME280;36217;60.232;24.776;2023-01-31T00:53:48;97893.95;;;-0.58;100.00
49779;BME280;36217;60.232;24.776;2023-01-31T00:56:16;97877.09;;;-0.75;100.00
49779;BME280;36217;60.232;24.776;2023-01-31T00:58:43;97883.00;;;-0.46;100.00
49779;BME280;36217;60.232;24.776;2023-01-31T01:01:12;97882.12;;;-0.48;100.00
49779;BME280;36217;60.232;24.776;2023-01-31T01:03:41;97892.93;;;-1.15;100.00
49779;BME280;36217;60.232;24.776;2023-01-31T01:06:09;97896.30;;;-0.45;100.00
49779;BME280;36217;60.232;24.776;2023-01-31T01:08:38;97891.28;;;-0.79;100.00
49779;BME280;36217;60.232;24.776;2023-01-31T01:11:06;97900.77;;;-1.01;100.00
49779;BME280;36217;60.232;24.776;2023-01-31T01:13:34;97907.88;;;-0.62;100.00
49779;BME280;36217;60.232;24.776;2023-01-31T01:16:04;97914.02;;;-1.12;100.00
49779;BME280;36217;60.232;24.776;2023-01-31T01:18:32;97906.98;;;-0.46;100.00
49779;BME280;36217;60.232;24.776;2023-01-31T01:21:05;97908.38;;;-0.84;100.00
49779;BME280;36217;60.232;24.776;2023-01-31T01:23:32;97918.36;;;-0.46;100.00
49779;BME280;36217;60.232;24.776;2023-01-31T01:25:59;97936.34;;;-0.34;100.00
49779;BME280;36217;60.232;24.776;2023-01-31T01:28:26;97928.11;;;-0.88;100.00
49779;BME280;36217;60.232;24.776;2023-01-31T01:30:53;97935.32;;;-0.75;100.00
49779;BME280;36217;60.232;24.776;2023-01-31T01:33:20;97947.59;;;-0.82;100.00
49779;BME280;36217;60.232;24.776;2023-01-31T01:35:48;97941.82;;;-0.39;100.00
49779;BME280;36217;60.232;24.776;2023-01-31T01:38:15;97954.31;;;-0.84;100.00
49779;BME280;36217;60.232;24.776;2023-01-31T01:40:42;97958.80;;;-0.31;100.00
49779;BME280;36217;60.232;24.776;2023-01-31T01:43:10;97962.57;;;-0.79;100.00
49779;BME280;36217;60.232;24.776;2023-01-31T01:45:37;97964.38;;;-0.63;100.00
49779;BME280;36217;60.232;24.776;2023-01-31T01:48:06;97968.16;;;-0.47;100.00
49779;BME280;36217;60.232;24.776;2023-01-31T01:50:35;97974.75;;;-0.57;100.00
49779;BME280;36217;60.232;24.776;2023-01-31T01:53:09;97974.56;;;-0.04;100.00
49779;BME280;36217;60.232;24.776;2023-01-31T01:55:41;97981.14;;;-0.14;100.00
49779;BME280;36217;60.232;24.776;2023-01-31T01:58:14;97982.33;;;-0.21;100.00
49779;BME280;36217;60.232;24.776;2023-01-31T02:00:43;97990.07;;;-0.06;100.00
49779;BME280;36217;60.232;24.776;2023-01-31T02:03:11;97983.60;;;-0.41;100.00
49779;BME280;36217;60.232;24.776;2023-01-31T02:05:42;97993.49;;;-0.35;100.00
49779;BME280;36217;60.232;24.776;2023-01-31T02:08:11;97990.63;;;-0.25;100.00
49779;BME280;36217;60.232;24.776;2023-01-31T02:10:46;97994.67;;;-0.24;100.00
49779;BME280;36217;60.232;24.776;2023-01-31T02:13:14;98002.44;;;-0.61;100.00
49779;BME280;36217;60.232;24.776;2023-01-31T02:15:41;97998.07;;;-0.20;100.00
49779;BME280;36217;60.232;24.776;2023-01-31T02:18:08;98002.69;;;-0.06;100.00
49779;BME280;36217;60.232;24.776;2023-01-31T02:21:01;98011.08;;;-0.26;100.00
49779;BME280;36217;60.232;24.776;2023-01-31T02:24:08;98023.49;;;-0.25;100.00
49779;BME280;36217;60.232;24.776;2023-01-31T02:27:17;98019.97;;;-0.63;100.00
49779;BME280;36217;60.232;24.776;2023-01-31T02:30:06;98020.77;;;-0.47;100.00
49779;BME280;36217;60.232;24.776;2023-01-31T02:32:47;98016.67;;;-0.75;100.00
49779;BME280;36217;60.232;24.776;2023-01-31T02:35:24;98019.66;;;-0.94;100.00
49779;BME280;36217;60.232;24.776;2023-01-31T02:38:02;98018.67;;;-0.39;100.00
49779;BME280;36217;60.232;24.776;2023-01-31T02:40:37;98018.93;;;-0.55;100.00
49779;BME280;36217;60.232;24.776;2023-01-31T02:43:11;98022.89;;;-0.24;100.00
49779;BME280;36217;60.232;24.776;2023-01-31T02:45:48;98033.84;;;-0.87;100.00
49779;BME280;36217;60.232;24.776;2023-01-31T02:48:23;98036.72;;;-0.56;100.00
49779;BME280;36217;60.232;24.776;2023-01-31T02:51:00;98040.27;;;-0.74;100.00
49779;BME280;36217;60.232;24.776;2023-01-31T02:53:32;98048.19;;;-0.40;100.00
49779;BME280;36217;60.232;24.776;2023-01-31T02:56:05;98050.56;;;-0.64;100.00
49779;BME280;36217;60.232;24.776;2023-01-31T02:58:35;98060.76;;;-0.30;100.00
49779;BME280;36217;60.232;24.776;2023-01-31T03:01:04;98064.73;;;-0.49;100.00
49779;BME280;36217;60.232;24.776;2023-01-31T03:03:34;98068.50;;;-0.68;100.00
49779;BME280;36217;60.232;24.776;2023-01-31T03:06:40;98070.63;;;-0.31;100.00
49779;BME280;36217;60.232;24.776;2023-01-31T03:09:13;98078.03;;;-0.26;100.00
49779;BME280;36217;60.232;24.776;2023-01-31T03:11:47;98086.20;;;-0.69;100.00
49779;BME280;36217;60.232;24.776;2023-01-31T03:14:22;98067.90;;;-0.71;100.00
49779;BME280;36217;60.232;24.776;2023-01-31T03:17:40;98096.52;;;-0.62;100.00
49779;BME280;36217;60.232;24.776;2023-01-31T03:20:15;98086.40;;;-0.55;100.00
49779;BME280;36217;60.232;24.776;2023-01-31T03:20:20;98091.86;;;-0.97;100.00
49779;BME280;36217;60.232;24.776;2023-01-31T03:22:50;98095.42;;;-0.76;100.00
49779;BME280;36217;60.232;24.776;2023-01-31T03:25:23;98092.78;;;-0.29;100.00
49779;BME280;36217;60.232;24.776;2023-01-31T03:27:54;98097.50;;;-0.52;100.00
49779;BME280;36217;60.232;24.776;2023-01-31T03:30:26;98102.45;;;-0.45;100.00
49779;BME280;36217;60.232;24.776;2023-01-31T03:32:59;98099.79;;;-0.51;100.00
49779;BME280;36217;60.232;24.776;2023-01-31T03:35:28;98100.09;;;-0.63;100.00
49779;BME280;36217;60.232;24.776;2023-01-31T03:38:04;98099.94;;;-0.35;100.00
49779;BME280;36217;60.232;24.776;2023-01-31T03:40:36;98109.11;;;-0.52;100.00
49779;BME280;36217;60.232;24.776;2023-01-31T03:43:19;98115.96;;;-0.82;100.00
49779;BME280;36217;60.232;24.776;2023-01-31T03:45:53;98129.61;;;-0.52;100.00
49779;BME280;36217;60.232;24.776;2023-01-31T03:48:27;98131.72;;;-0.51;100.00
49779;BME280;36217;60.232;24.776;2023-01-31T03:50:59;98132.58;;;-0.64;100.00
49779;BME280;36217;60.232;24.776;2023-01-31T03:53:31;98142.40;;;-0.33;100.00
49779;BME280;36217;60.232;24.776;2023-01-31T03:56:02;98154.40;;;-0.55;100.00
49779;BME280;36217;60.232;24.776;2023-01-31T03:58:33;98154.17;;;-0.53;100.00
49779;BME280;36217;60.232;24.776;2023-01-31T04:01:04;98166.43;;;-1.14;100.00
49779;BME280;36217;60.232;24.776;2023-01-31T04:03:56;98164.43;;;-0.84;100.00
49779;BME280;36217;60.232;24.776;2023-01-31T04:06:26;98172.96;;;-1.22;100.00
49779;BME280;36217;60.232;24.776;2023-01-31T04:08:53;98185.12;;;-1.07;100.00
49779;BME280;36217;60.232;24.776;2023-01-31T04:11:24;98183.55;;;-0.73;100.00
49779;BME280;36217;60.232;24.776;2023-01-31T04:13:53;98183.01;;;-0.71;100.00
49779;BME280;36217;60.232;24.776;2023-01-31T04:16:20;98184.96;;;-0.69;100.00
49779;BME280;36217;60.232;24.776;2023-01-31T04:18:47;98181.80;;;-0.31;100.00
49779;BME280;36217;60.232;24.776;2023-01-31T04:21:25;98180.89;;;-0.92;100.00
49779;BME280;36217;60.232;24.776;2023-01-31T04:23:51;98194.81;;;-0.88;100.00
49779;BME280;36217;60.232;24.776;2023-01-31T04:26:18;98190.06;;;-0.79;100.00
49779;BME280;36217;60.232;24.776;2023-01-31T04:28:46;98186.62;;;-1.12;100.00
49779;BME280;36217;60.232;24.776;2023-01-31T04:31:13;98182.65;;;-1.31;100.00
49779;BME280;36217;60.232;24.776;2023-01-31T04:33:40;98188.45;;;-0.73;100.00
49779;BME280;36217;60.232;24.776;2023-01-31T04:36:17;98191.32;;;-0.57;100.00
49779;BME280;36217;60.232;24.776;2023-01-31T04:38:44;98194.72;;;-0.72;100.00
49779;BME280;36217;60.232;24.776;2023-01-31T04:41:11;98193.81;;;-0.71;100.00
49779;BME280;36217;60.232;24.776;2023-01-31T04:43:38;98209.03;;;-0.47;100.00
49779;BME280;36217;60.232;24.776;2023-01-31T04:46:06;98208.47;;;-0.73;100.00
49779;BME280;36217;60.232;24.776;2023-01-31T04:48:33;98209.81;;;-0.31;100.00
49779;BME280;36217;60.232;24.776;2023-01-31T04:51:00;98218.71;;;-0.32;100.00
49779;BME280;36217;60.232;24.776;2023-01-31T04:53:27;98222.38;;;-0.71;100.00
49779;BME280;36217;60.232;24.776;2023-01-31T04:55:55;98229.74;;;-1.29;100.00
49779;BME280;36217;60.232;24.776;2023-01-31T04:58:22;98227.47;;;-0.75;100.00
49779;BME280;36217;60.232;24.776;2023-01-31T05:00:49;98230.68;;;-0.49;100.00
49779;BME280;36217;60.232;24.776;2023-01-31T05:03:16;98229.07;;;-0.27;100.00
49779;BME280;36217;60.232;24.776;2023-01-31T05:05:43;98233.35;;;-0.51;100.00
49779;BME280;36217;60.232;24.776;2023-01-31T05:08:10;98241.89;;;-0.32;100.00
49779;BME280;36217;60.232;24.776;2023-01-31T05:10:38;98252.58;;;-0.28;100.00
49779;BME280;36217;60.232;24.776;2023-01-31T05:13:05;98258.55;;;-0.23;100.00
49779;BME280;36217;60.232;24.776;2023-01-31T05:15:32;98258.76;;;-0.24;100.00
49779;BME280;36217;60.232;24.776;2023-01-31T05:17:59;98266.09;;;-0.58;100.00
49779;BME280;36217;60.232;24.776;2023-01-31T05:20:27;98269.70;;;-0.65;100.00
49779;BME280;36217;60.232;24.776;2023-01-31T05:22:54;98268.36;;;-0.58;100.00
49779;BME280;36217;60.232;24.776;2023-01-31T05:25:21;98272.44;;;-0.53;100.00
49779;BME280;36217;60.232;24.776;2023-01-31T05:27:48;98275.74;;;-0.44;100.00
49779;BME280;36217;60.232;24.776;2023-01-31T05:30:16;98281.97;;;-0.36;100.00
49779;BME280;36217;60.232;24.776;2023-01-31T05:32:43;98289.46;;;-0.75;100.00
49779;BME280;36217;60.232;24.776;2023-01-31T05:35:11;98288.16;;;-0.40;100.00
49779;BME280;36217;60.232;24.776;2023-01-31T05:37:39;98289.77;;;-0.48;100.00
49779;BME280;36217;60.232;24.776;2023-01-31T05:40:07;98289.12;;;-0.54;100.00
49779;BME280;36217;60.232;24.776;2023-01-31T05:42:34;98298.10;;;-1.05;100.00
49779;BME280;36217;60.232;24.776;2023-01-31T05:45:02;98295.50;;;-0.31;100.00
49779;BME280;36217;60.232;24.776;2023-01-31T05:47:28;98296.14;;;-1.19;100.00
49779;BME280;36217;60.232;24.776;2023-01-31T05:49:56;98304.01;;;-0.88;100.00
49779;BME280;36217;60.232;24.776;2023-01-31T05:52:23;98302.82;;;-1.40;100.00
49779;BME280;36217;60.232;24.776;2023-01-31T05:54:50;98312.10;;;-0.88;100.00
49779;BME280;36217;60.232;24.776;2023-01-31T05:57:17;98310.66;;;-0.77;100.00
49779;BME280;36217;60.232;24.776;2023-01-31T05:59:45;98326.45;;;-1.19;100.00
49779;BME280;36217;60.232;24.776;2023-01-31T06:02:12;98326.52;;;-0.64;100.00
49779;BME280;36217;60.232;24.776;2023-01-31T06:04:39;98325.19;;;-0.53;100.00
49779;BME280;36217;60.232;24.776;2023-01-31T06:07:06;98336.11;;;-0.76;100.00
49779;BME280;36217;60.232;24.776;2023-01-31T06:09:33;98331.06;;;-0.76;100.00
49779;BME280;36217;60.232;24.776;2023-01-31T06:12:01;98340.26;;;-0.86;100.00
49779;BME280;36217;60.232;24.776;2023-01-31T06:14:28;98340.06;;;-1.11;100.00
49779;BME280;36217;60.232;24.776;2023-01-31T06:16:55;98343.46;;;-0.98;100.00
49779;BME280;36217;60.232;24.776;2023-01-31T06:19:22;98347.80;;;-1.15;100.00
49779;BME280;36217;60.232;24.776;2023-01-31T06:21:50;98348.50;;;-1.06;100.00
49779;BME280;36217;60.232;24.776;2023-01-31T06:24:17;98348.12;;;-1.29;100.00
49779;BME280;36217;60.232;24.776;2023-01-31T06:26:44;98346.35;;;-1.14;100.00
49779;BME280;36217;60.232;24.776;2023-01-31T06:29:11;98353.13;;;-0.95;100.00
49779;BME280;36217;60.232;24.776;2023-01-31T06:31:38;98356.57;;;-0.79;100.00
49779;BME280;36217;60.232;24.776;2023-01-31T06:34:08;98363.88;;;-0.73;100.00
49779;BME280;36217;60.232;24.776;2023-01-31T06:36:35;98365.43;;;-1.20;100.00
49779;BME280;36217;60.232;24.776;2023-01-31T06:39:03;98366.92;;;-0.85;100.00
49779;BME280;36217;60.232;24.776;2023-01-31T06:41:30;98376.24;;;-0.75;100.00
49779;BME280;36217;60.232;24.776;2023-01-31T06:43:57;98377.76;;;-1.03;100.00
49779;BME280;36217;60.232;24.776;2023-01-31T06:46:24;98385.45;;;-0.86;100.00
49779;BME280;36217;60.232;24.776;2023-01-31T06:48:51;98393.20;;;-1.05;100.00
49779;BME280;36217;60.232;24.776;2023-01-31T06:51:19;98401.65;;;-0.89;100.00
49779;BME280;36217;60.232;24.776;2023-01-31T06:53:46;98408.33;;;-0.74;100.00
49779;BME280;36217;60.232;24.776;2023-01-31T06:56:13;98413.76;;;-0.83;100.00
49779;BME280;36217;60.232;24.776;2023-01-31T06:58:40;98417.69;;;-1.06;100.00
49779;BME280;36217;60.232;24.776;2023-01-31T07:01:10;98413.48;;;-1.06;100.00
49779;BME280;36217;60.232;24.776;2023-01-31T07:03:37;98423.29;;;-0.83;100.00
49779;BME280;36217;60.232;24.776;2023-01-31T07:06:05;98428.39;;;-0.46;100.00
49779;BME280;36217;60.232;24.776;2023-01-31T07:08:32;98436.48;;;-0.81;100.00
49779;BME280;36217;60.232;24.776;2023-01-31T07:10:59;98446.61;;;-0.99;100.00
49779;BME280;36217;60.232;24.776;2023-01-31T07:13:26;98442.16;;;-0.81;100.00
49779;BME280;36217;60.232;24.776;2023-01-31T07:15:54;98432.58;;;-0.81;100.00
49779;BME280;36217;60.232;24.776;2023-01-31T07:18:21;98440.52;;;-0.56;100.00
49779;BME280;36217;60.232;24.776;2023-01-31T07:20:48;98437.45;;;-0.60;100.00
49779;BME280;36217;60.232;24.776;2023-01-31T07:23:16;98446.67;;;-1.00;100.00
49779;BME280;36217;60.232;24.776;2023-01-31T07:25:43;98456.24;;;-0.75;100.00
49779;BME280;36217;60.232;24.776;2023-01-31T07:28:11;98450.87;;;-0.50;100.00
49779;BME280;36217;60.232;24.776;2023-01-31T07:30:38;98458.07;;;-0.39;100.00
49779;BME280;36217;60.232;24.776;2023-01-31T07:33:05;98458.57;;;-0.81;100.00
49779;BME280;36217;60.232;24.776;2023-01-31T07:35:32;98464.66;;;-0.36;100.00
49779;BME280;36217;60.232;24.776;2023-01-31T07:37:59;98466.19;;;-0.55;100.00
49779;BME280;36217;60.232;24.776;2023-01-31T07:40:26;98467.48;;;-0.58;100.00
49779;BME280;36217;60.232;24.776;2023-01-31T07:42:57;98471.20;;;-0.44;100.00
49779;BME280;36217;60.232;24.776;2023-01-31T07:45:24;98467.58;;;-0.72;100.00
49779;BME280;36217;60.232;24.776;2023-01-31T07:47:51;98474.32;;;-0.28;100.00
49779;BME280;36217;60.232;24.776;2023-01-31T07:50:18;98483.68;;;-0.14;100.00
49779;BME280;36217;60.232;24.776;2023-01-31T07:52:45;98480.06;;;-0.40;100.00
49779;BME280;36217;60.232;24.776;2023-01-31T07:55:12;98481.55;;;-0.14;100.00
49779;BME280;36217;60.232;24.776;2023-01-31T07:57:39;98487.34;;;0.11;100.00
49779;BME280;36217;60.232;24.776;2023-01-31T08:00:09;98487.48;;;-0.13;100.00
49779;BME280;36217;60.232;24.776;2023-01-31T08:02:36;98495.67;;;-0.18;100.00
49779;BME280;36217;60.232;24.776;2023-01-31T08:05:04;98492.46;;;-0.38;100.00
49779;BME280;36217;60.232;24.776;2023-01-31T08:07:31;98503.43;;;-0.25;100.00
49779;BME280;36217;60.232;24.776;2023-01-31T08:09:58;98502.48;;;0.31;100.00
49779;BME280;36217;60.232;24.776;2023-01-31T08:12:25;98506.67;;;-0.03;100.00
49779;BME280;36217;60.232;24.776;2023-01-31T08:15:03;98506.94;;;0.06;100.00
49779;BME280;36217;60.232;24.776;2023-01-31T08:17:30;98502.18;;;0.18;100.00
49779;BME280;36217;60.232;24.776;2023-01-31T08:19:58;98507.57;;;0.08;100.00
49779;BME280;36217;60.232;24.776;2023-01-31T08:22:25;98509.73;;;0.12;100.00
49779;BME280;36217;60.232;24.776;2023-01-31T08:24:52;98516.91;;;0.11;100.00
49779;BME280;36217;60.232;24.776;2023-01-31T08:27:19;98521.70;;;0.08;100.00
49779;BME280;36217;60.232;24.776;2023-01-31T08:29:46;98513.86;;;0.22;100.00
49779;BME280;36217;60.232;24.776;2023-01-31T08:32:14;98513.42;;;0.33;100.00
49779;BME280;36217;60.232;24.776;2023-01-31T08:34:41;98516.91;;;0.38;100.00
49779;BME280;36217;60.232;24.776;2023-01-31T08:37:08;98520.28;;;0.11;100.00
49779;BME280;36217;60.232;24.776;2023-01-31T08:39:35;98521.46;;;0.40;100.00
49779;BME280;36217;60.232;24.776;2023-01-31T08:42:03;98531.60;;;0.48;100.00
49779;BME280;36217;60.232;24.776;2023-01-31T08:44:30;98536.18;;;0.75;100.00
49779;BME280;36217;60.232;24.776;2023-01-31T08:46:57;98539.24;;;-0.06;100.00
49779;BME280;36217;60.232;24.776;2023-01-31T08:49:24;98549.61;;;-0.09;100.00
49779;BME280;36217;60.232;24.776;2023-01-31T08:51:51;98553.88;;;0.50;100.00
49779;BME280;36217;60.232;24.776;2023-01-31T08:54:18;98552.47;;;0.80;100.00
49779;BME280;36217;60.232;24.776;2023-01-31T08:56:46;98553.66;;;0.42;100.00
49779;BME280;36217;60.232;24.776;2023-01-31T08:59:13;98556.93;;;0.49;100.00
49779;BME280;36217;60.232;24.776;2023-01-31T09:01:40;98550.25;;;0.13;100.00
49779;BME280;36217;60.232;24.776;2023-01-31T09:04:07;98551.10;;;0.29;100.00
49779;BME280;36217;60.232;24.776;2023-01-31T09:06:34;98551.51;;;0.63;100.00
49779;BME280;36217;60.232;24.776;2023-01-31T09:09:01;98552.43;;;0.88;100.00
49779;BME280;36217;60.232;24.776;2023-01-31T09:11:29;98560.09;;;0.97;100.00
49779;BME280;36217;60.232;24.776;2023-01-31T09:13:56;98561.30;;;1.30;100.00
49779;BME280;36217;60.232;24.776;2023-01-31T09:16:23;98567.63;;;0.87;100.00
49779;BME280;36217;60.232;24.776;2023-01-31T09:18:52;98570.47;;;1.25;100.00
49779;BME280;36217;60.232;24.776;2023-01-31T09:21:20;98572.30;;;0.50;100.00
49779;BME280;36217;60.232;24.776;2023-01-31T09:23:47;98569.05;;;0.68;100.00
49779;BME280;36217;60.232;24.776;2023-01-31T09:26:15;98570.87;;;0.81;100.00
49779;BME280;36217;60.232;24.776;2023-01-31T09:28:43;98577.12;;;0.52;100.00
49779;BME280;36217;60.232;24.776;2023-01-31T09:31:12;98582.04;;;0.56;100.00
49779;BME280;36217;60.232;24.776;2023-01-31T09:33:39;98589.29;;;0.69;100.00
49779;BME280;36217;60.232;24.776;2023-01-31T09:36:09;98597.78;;;0.55;100.00
49779;BME280;36217;60.232;24.776;2023-01-31T09:38:37;98600.85;;;0.24;100.00
49779;BME280;36217;60.232;24.776;2023-01-31T09:41:08;98601.74;;;0.44;100.00
49779;BME280;36217;60.232;24.776;2023-01-31T09:43:43;98607.17;;;0.73;100.00
49779;BME280;36217;60.232;24.776;2023-01-31T09:46:15;98614.51;;;0.93;100.00
49779;BME280;36217;60.232;24.776;2023-01-31T09:48:44;98607.80;;;0.47;100.00
49779;BME280;36217;60.232;24.776;2023-01-31T09:51:13;98609.21;;;1.10;100.00
49779;BME280;36217;60.232;24.776;2023-01-31T09:53:43;98614.26;;;1.23;100.00
49779;BME280;36217;60.232;24.776;2023-01-31T09:56:19;98608.78;;;1.43;100.00
49779;BME280;36217;60.232;24.776;2023-01-31T09:58:55;98612.23;;;0.83;100.00
49779;BME280;36217;60.232;24.776;2023-01-31T10:01:27;98608.08;;;1.10;100.00
49779;BME280;36217;60.232;24.776;2023-01-31T10:04:04;98605.66;;;1.16;100.00
49779;BME280;36217;60.232;24.776;2023-01-31T10:06:42;98604.21;;;1.05;100.00
49779;BME280;36217;60.232;24.776;2023-01-31T10:09:16;98610.43;;;1.02;100.00
49779;BME280;36217;60.232;24.776;2023-01-31T10:11:48;98620.86;;;1.37;100.00
49779;BME280;36217;60.232;24.776;2023-01-31T10:14:23;98608.60;;;1.40;100.00
49779;BME280;36217;60.232;24.776;2023-01-31T10:16:59;98616.28;;;1.27;100.00
49779;BME280;36217;60.232;24.776;2023-01-31T10:19:33;98605.33;;;0.93;100.00
49779;BME280;36217;60.232;24.776;2023-01-31T10:22:07;98600.40;;;0.93;100.00
49779;BME280;36217;60.232;24.776;2023-01-31T10:24:38;98599.88;;;1.28;100.00
49779;BME280;36217;60.232;24.776;2023-01-31T10:27:11;98601.64;;;1.00;100.00
49779;BME280;36217;60.232;24.776;2023-01-31T10:29:42;98605.16;;;1.29;100.00
49779;BME280;36217;60.232;24.776;2023-01-31T10:32:19;98606.56;;;1.35;100.00
49779;BME280;36217;60.232;24.776;2023-01-31T10:34:52;98605.04;;;1.69;100.00
49779;BME280;36217;60.232;24.776;2023-01-31T10:37:29;98603.94;;;1.28;100.00
49779;BME280;36217;60.232;24.776;2023-01-31T10:40:02;98603.75;;;1.51;100.00
49779;BME280;36217;60.232;24.776;2023-01-31T10:42:32;98602.37;;;1.64;100.00
49779;BME280;36217;60.232;24.776;2023-01-31T10:45:03;98604.73;;;1.62;100.00
49779;BME280;36217;60.232;24.776;2023-01-31T10:47:33;98603.25;;;1.54;100.00
49779;BME280;36217;60.232;24.776;2023-01-31T10:50:12;98602.11;;;1.56;100.00
49779;BME280;36217;60.232;24.776;2023-01-31T10:52:51;98609.38;;;1.89;100.00
49779;BME280;36217;60.232;24.776;2023-01-31T10:55:38;98610.66;;;1.50;100.00
49779;BME280;36217;60.232;24.776;2023-01-31T10:58:10;98616.73;;;1.44;100.00
49779;BME280;36217;60.232;24.776;2023-01-31T11:00:39;98618.20;;;1.14;100.00
49779;BME280;36217;60.232;24.776;2023-01-31T11:03:06;98618.93;;;1.16;100.00
49779;BME280;36217;60.232;24.776;2023-01-31T11:05:38;98616.79;;;1.24;100.00
49779;BME280;36217;60.232;24.776;2023-01-31T11:08:35;98615.46;;;1.51;100.00
49779;BME280;36217;60.232;24.776;2023-01-31T11:11:08;98617.53;;;1.52;100.00
49779;BME280;36217;60.232;24.776;2023-01-31T11:13:35;98618.25;;;1.42;100.00
49779;BME280;36217;60.232;24.776;2023-01-31T11:16:07;98616.69;;;1.70;100.00
49779;BME280;36217;60.232;24.776;2023-01-31T11:18:36;98617.08;;;1.28;100.00
49779;BME280;36217;60.232;24.776;2023-01-31T11:21:08;98619.66;;;1.47;100.00
49779;BME280;36217;60.232;24.776;2023-01-31T11:23:36;98616.47;;;1.51;100.00
49779;BME280;36217;60.232;24.776;2023-01-31T11:26:03;98617.34;;;1.35;100.00
49779;BME280;36217;60.232;24.776;2023-01-31T11:28:34;98614.96;;;1.32;100.00
49779;BME280;36217;60.232;24.776;2023-01-31T11:31:05;98615.65;;;1.33;100.00
49779;BME280;36217;60.232;24.776;2023-01-31T11:33:37;98617.13;;;1.42;100.00
49779;BME280;36217;60.232;24.776;2023-01-31T11:36:07;98621.73;;;1.19;100.00
49779;BME280;36217;60.232;24.776;2023-01-31T11:38:35;98613.89;;;1.66;100.00
49779;BME280;36217;60.232;24.776;2023-01-31T11:41:26;98616.27;;;1.49;100.00
49779;BME280;36217;60.232;24.776;2023-01-31T11:44:25;98613.91;;;1.43;100.00
49779;BME280;36217;60.232;24.776;2023-01-31T11:46:55;98613.56;;;1.40;100.00
49779;BME280;36217;60.232;24.776;2023-01-31T11:49:29;98609.13;;;1.34;100.00
49779;BME280;36217;60.232;24.776;2023-01-31T11:51:57;98608.64;;;1.28;100.00
49779;BME280;36217;60.232;24.776;2023-01-31T11:54:27;98604.28;;;1.09;100.00
49779;BME280;36217;60.232;24.776;2023-01-31T11:56:56;98603.94;;;1.41;100.00
49779;BME280;36217;60.232;24.776;2023-01-31T11:59:27;98609.22;;;1.07;100.00
49779;BME280;36217;60.232;24.776;2023-01-31T12:01:56;98613.02;;;1.27;100.00
49779;BME280;36217;60.232;24.776;2023-01-31T12:04:28;98615.93;;;1.31;100.00
49779;BME280;36217;60.232;24.776;2023-01-31T12:07:00;98618.00;;;1.53;100.00
49779;BME280;36217;60.232;24.776;2023-01-31T12:09:30;98624.17;;;1.43;100.00
49779;BME280;36217;60.232;24.776;2023-01-31T12:12:22;98619.84;;;1.30;100.00
49779;BME280;36217;60.232;24.776;2023-01-31T12:14:55;98622.67;;;1.44;100.00
49779;BME280;36217;60.232;24.776;2023-01-31T12:17:27;98626.16;;;1.21;100.00
49779;BME280;36217;60.232;24.776;2023-01-31T12:20:06;98618.65;;;1.24;100.00
49779;BME280;36217;60.232;24.776;2023-01-31T12:22:40;98619.25;;;0.93;100.00
49779;BME280;36217;60.232;24.776;2023-01-31T12:25:15;98622.96;;;1.12;100.00
49779;BME280;36217;60.232;24.776;2023-01-31T12:27:53;98623.63;;;1.92;100.00
49779;BME280;36217;60.232;24.776;2023-01-31T12:30:39;98628.25;;;1.19;100.00
49779;BME280;36217;60.232;24.776;2023-01-31T12:33:15;98634.74;;;1.23;100.00
49779;BME280;36217;60.232;24.776;2023-01-31T12:35:55;98632.46;;;1.28;100.00
49779;BME280;36217;60.232;24.776;2023-01-31T12:38:43;98630.23;;;1.47;100.00
49779;BME280;36217;60.232;24.776;2023-01-31T12:41:24;98629.32;;;1.40;100.00
49779;BME280;36217;60.232;24.776;2023-01-31T12:44:11;98630.89;;;1.31;100.00
49779;BME280;36217;60.232;24.776;2023-01-31T12:46:56;98627.80;;;1.36;100.00
49779;BME280;36217;60.232;24.776;2023-01-31T12:49:41;98623.93;;;1.17;100.00
49779;BME280;36217;60.232;24.776;2023-01-31T12:52:19;98625.75;;;1.59;100.00
49779;BME280;36217;60.232;24.776;2023-01-31T12:54:59;98631.97;;;1.43;100.00
49779;BME280;36217;60.232;24.776;2023-01-31T12:57:34;98632.95;;;1.25;100.00
49779;BME280;36217;60.232;24.776;2023-01-31T13:00:20;98637.18;;;1.26;100.00